Time;durP1;ratioP1;P1;durP2;ratioP2;P2;SDS_P1;SDS_P2;PMS_P1;PMS_P2;Temp;Humidity;BMP_temperature;BMP_pressure;BME280_temperature;BME280_humidity;BME280_pressure;Samples;Min_cycle;Max_cycle;Signal;HPM_P1;HPM_P2
2023/10/27 00:02:02;;;;;;;6.45;2.88;;;;;;;;;;5098000;28;20058;-75
2023/10/27 00:04:27;;;;;;;7.18;3.88;;;;;;;;;;5098089;28;20031;-74
2023/10/27 00:06:52;;;;;;;9.82;3.08;;;;;;;;;;5097294;28;20050;-71
2023/10/27 00:09:18;;;;;;;7.88;2.33;;;;;;;;;;5099270;28;20040;-74
2023/10/27 00:11:43;;;;;;;7.60;3.45;;;;;;;;;;5095728;28;20051;-71
2023/10/27 00:14:08;;;;;;;5.20;2.97;;;;;;;;;;5096084;28;20043;-72
2023/10/27 00:16:34;;;;;;;8.05;3.75;;;;;;;;;;5096365;28;20015;-73
2023/10/27 00:18:59;;;;;;;7.47;4.15;;;;;;;;;;5089333;28;20338;-70
2023/10/27 00:21:25;;;;;;;7.70;3.28;;;;;;;;;;5089517;28;23290;-72
2023/10/27 00:23:51;;;;;;;10.93;5.07;;;;;;;;;;5092728;28;20035;-74
2023/10/27 00:26:16;;;;;;;6.78;3.08;;;;;;;;;;5097963;28;20015;-72
2023/10/27 00:28:42;;;;;;;7.20;2.78;;;;;;;;;;5099045;28;20423;-72
2023/10/27 00:31:07;;;;;;;7.45;3.00;;;;;;;;;;5097892;28;21342;-72
2023/10/27 00:33:34;;;;;;;7.68;3.25;;;;;;;;;;5094284;28;20027;-72
2023/10/27 00:35:59;;;;;;;9.52;4.18;;;;;;;;;;5095527;28;20135;-72
2023/10/27 00:38:25;;;;;;;8.95;3.72;;;;;;;;;;5096919;28;20119;-72
2023/10/27 00:40:50;;;;;;;10.98;5.05;;;;;;;;;;5096295;28;20435;-75
2023/10/27 00:43:16;;;;;;;9.32;3.90;;;;;;;;;;5095644;28;20399;-72
2023/10/27 00:45:43;;;;;;;6.10;2.67;;;;;;;;;;5098398;28;20031;-73
2023/10/27 00:48:09;;;;;;;5.45;2.45;;;;;;;;;;5087794;28;20038;-72
2023/10/27 00:50:34;;;;;;;11.15;5.50;;;;;;;;;;5096483;28;20027;-73
2023/10/27 00:52:59;;;;;;;7.93;3.42;;;;;;;;;;5097305;28;20461;-71
2023/10/27 00:55:25;;;;;;;7.93;3.58;;;;;;;;;;5098016;28;20103;-75
2023/10/27 00:57:52;;;;;;;9.80;4.53;;;;;;;;;;5088496;28;20027;-73
2023/10/27 01:00:17;;;;;;;7.82;2.83;;;;;;;;;;5093392;28;20028;-72
2023/10/27 01:02:42;;;;;;;6.20;2.63;;;;;;;;;;5097725;28;20034;-71
2023/10/27 01:05:08;;;;;;;7.78;3.10;;;;;;;;;;5095933;28;20057;-72
2023/10/27 01:07:34;;;;;;;6.68;2.75;;;;;;;;;;5096823;28;20024;-71
2023/10/27 01:09:59;;;;;;;6.93;3.33;;;;;;;;;;5082596;28;20114;-72
2023/10/27 01:12:25;;;;;;;4.82;2.75;;;;;;;;;;5086426;28;20423;-72
2023/10/27 01:14:50;;;;;;;8.60;3.22;;;;;;;;;;5095413;28;20051;-75
2023/10/27 01:17:15;;;;;;;7.05;4.25;;;;;;;;;;5088587;28;20036;-72
2023/10/27 01:19:41;;;;;;;13.10;4.10;;;;;;;;;;5084427;28;20024;-71
2023/10/27 01:22:06;;;;;;;5.80;3.00;;;;;;;;;;5084691;28;20039;-70
2023/10/27 01:24:32;;;;;;;7.97;4.20;;;;;;;;;;5097408;28;20027;-72
2023/10/27 01:26:59;;;;;;;8.07;3.13;;;;;;;;;;5095761;28;20036;-70
2023/10/27 01:29:28;;;;;;;8.32;3.65;;;;;;;;;;5097131;28;20027;-73
2023/10/27 01:31:54;;;;;;;8.35;3.40;;;;;;;;;;5091718;28;20034;-70
2023/10/27 01:34:19;;;;;;;5.18;2.47;;;;;;;;;;5089532;28;20028;-71
2023/10/27 01:36:44;;;;;;;6.35;3.00;;;;;;;;;;5085554;28;20051;-70
2023/10/27 01:39:11;;;;;;;7.03;3.80;;;;;;;;;;5084773;28;20354;-70
2023/10/27 01:41:36;;;;;;;4.78;2.60;;;;;;;;;;5093667;28;20650;-74
2023/10/27 01:44:02;;;;;;;6.60;2.58;;;;;;;;;;5094825;28;20123;-73
2023/10/27 01:46:27;;;;;;;5.30;2.65;;;;;;;;;;5084159;28;20096;-72
2023/10/27 01:48:53;;;;;;;6.55;2.88;;;;;;;;;;5094152;28;20027;-71
2023/10/27 01:51:18;;;;;;;6.93;3.25;;;;;;;;;;5094337;28;20427;-71
2023/10/27 01:53:44;;;;;;;7.70;2.50;;;;;;;;;;5094474;28;20032;-71
2023/10/27 01:56:09;;;;;;;6.28;2.42;;;;;;;;;;5096339;28;20035;-71
2023/10/27 01:58:34;;;;;;;6.75;2.47;;;;;;;;;;5094415;28;20070;-72
2023/10/27 02:01:00;;;;;;;5.55;2.10;;;;;;;;;;5096702;28;20061;-76
2023/10/27 02:03:25;;;;;;;4.90;1.83;;;;;;;;;;5095725;28;20040;-73
2023/10/27 02:05:51;;;;;;;4.25;2.10;;;;;;;;;;5095204;28;20023;-76
2023/10/27 02:08:17;;;;;;;4.85;1.98;;;;;;;;;;5096309;28;20020;-73
2023/10/27 02:10:42;;;;;;;6.40;2.30;;;;;;;;;;5096349;28;20031;-71
2023/10/27 02:13:07;;;;;;;4.63;1.67;;;;;;;;;;5096616;28;20496;-71
2023/10/27 02:15:33;;;;;;;6.70;2.03;;;;;;;;;;5094287;28;20430;-71
2023/10/27 02:17:58;;;;;;;5.90;1.90;;;;;;;;;;5096091;28;20023;-71
2023/10/27 02:20:24;;;;;;;3.10;1.60;;;;;;;;;;5086243;28;20421;-71
2023/10/27 02:22:49;;;;;;;3.97;1.65;;;;;;;;;;5093867;28;20484;-73
2023/10/27 02:25:15;;;;;;;6.03;2.10;;;;;;;;;;5095453;28;20054;-75
2023/10/27 02:27:41;;;;;;;3.60;1.67;;;;;;;;;;5096302;28;20055;-72
2023/10/27 02:30:07;;;;;;;4.93;1.70;;;;;;;;;;5094433;28;20105;-72
2023/10/27 02:32:32;;;;;;;4.50;2.13;;;;;;;;;;5094972;28;20430;-72
2023/10/27 02:34:57;;;;;;;6.47;3.13;;;;;;;;;;5098171;28;20035;-70
2023/10/27 02:37:23;;;;;;;8.40;2.83;;;;;;;;;;5099376;28;20039;-75
2023/10/27 02:39:48;;;;;;;6.20;1.90;;;;;;;;;;5091102;28;20016;-73
2023/10/27 02:42:13;;;;;;;10.60;2.00;;;;;;;;;;5084932;28;20389;-71
2023/10/27 02:44:39;;;;;;;4.38;1.52;;;;;;;;;;5091795;28;20031;-73
2023/10/27 02:47:05;;;;;;;4.28;1.77;;;;;;;;;;5095919;28;20032;-71
2023/10/27 02:49:30;;;;;;;3.78;1.60;;;;;;;;;;5095093;28;20477;-70
2023/10/27 02:51:55;;;;;;;5.68;2.17;;;;;;;;;;5091357;28;20036;-70
2023/10/27 02:54:21;;;;;;;3.92;1.92;;;;;;;;;;5097823;28;20036;-70
2023/10/27 02:56:46;;;;;;;5.28;2.45;;;;;;;;;;5099010;28;20027;-72
2023/10/27 02:59:11;;;;;;;4.07;2.40;;;;;;;;;;5095867;27;20169;-70
2023/10/27 03:01:37;;;;;;;3.97;1.83;;;;;;;;;;5091521;28;20120;-73
2023/10/27 03:04:02;;;;;;;5.20;1.92;;;;;;;;;;5097584;28;20038;-71
2023/10/27 03:06:28;;;;;;;4.18;1.50;;;;;;;;;;5091654;28;20452;-76
2023/10/27 03:08:53;;;;;;;5.85;1.90;;;;;;;;;;5092996;28;20077;-72
2023/10/27 03:11:18;;;;;;;5.60;1.80;;;;;;;;;;5094083;27;20028;-72
2023/10/27 03:13:44;;;;;;;4.20;1.90;;;;;;;;;;5086075;28;20027;-72
2023/10/27 03:16:09;;;;;;;4.70;1.60;;;;;;;;;;5100286;28;20347;-72
2023/10/27 03:18:34;;;;;;;5.43;1.83;;;;;;;;;;5086490;28;20450;-73
2023/10/27 03:21:01;;;;;;;3.83;1.80;;;;;;;;;;5099411;28;20112;-71
2023/10/27 03:23:26;;;;;;;5.80;1.52;;;;;;;;;;5097987;28;20075;-70
2023/10/27 03:25:52;;;;;;;4.88;1.85;;;;;;;;;;5098012;28;20119;-75
2023/10/27 03:28:17;;;;;;;4.70;1.98;;;;;;;;;;5099333;28;20354;-71
2023/10/27 03:30:44;;;;;;;5.10;1.67;;;;;;;;;;5098648;28;20074;-73
2023/10/27 03:33:09;;;;;;;6.20;2.00;;;;;;;;;;5087584;28;20039;-71
2023/10/27 03:35:37;;;;;;;2.92;1.50;;;;;;;;;;5098894;28;20027;-70
2023/10/27 03:38:03;;;;;;;5.65;1.95;;;;;;;;;;5097992;27;20035;-75
2023/10/27 03:40:28;;;;;;;6.53;2.15;;;;;;;;;;5083672;28;20020;-72
2023/10/27 03:42:54;;;;;;;4.50;1.85;;;;;;;;;;5080525;28;20430;-73
2023/10/27 03:45:19;;;;;;;8.18;2.00;;;;;;;;;;5080758;28;20035;-75
2023/10/27 03:47:44;;;;;;;4.80;1.70;;;;;;;;;;5097004;27;20103;-71
2023/10/27 03:50:10;;;;;;;6.10;1.73;;;;;;;;;;5096909;28;20430;-71
2023/10/27 03:52:36;;;;;;;6.25;2.03;;;;;;;;;;5096784;28;20038;-74
2023/10/27 03:55:02;;;;;;;3.83;1.70;;;;;;;;;;5098998;28;20016;-71
2023/10/27 03:57:27;;;;;;;5.65;1.83;;;;;;;;;;5099172;28;20320;-73
2023/10/27 03:59:52;;;;;;;2.45;1.50;;;;;;;;;;5089281;28;20063;-72
2023/10/27 04:02:18;;;;;;;5.47;2.03;;;;;;;;;;5082844;28;20040;-72
2023/10/27 04:04:43;;;;;;;6.32;2.13;;;;;;;;;;5087255;28;20031;-74
2023/10/27 04:07:08;;;;;;;4.63;2.00;;;;;;;;;;5082832;28;20035;-72
2023/10/27 04:09:34;;;;;;;4.70;1.77;;;;;;;;;;5080595;28;20035;-71
2023/10/27 04:11:59;;;;;;;10.77;2.55;;;;;;;;;;5080008;28;20046;-71
2023/10/27 04:14:24;;;;;;;3.88;1.85;;;;;;;;;;5083281;28;20019;-72
2023/10/27 04:16:50;;;;;;;4.70;1.52;;;;;;;;;;5089696;27;20024;-75
2023/10/27 04:19:15;;;;;;;3.45;1.85;;;;;;;;;;5096444;28;20388;-71
2023/10/27 04:21:40;;;;;;;6.15;1.95;;;;;;;;;;5092633;28;20039;-70
2023/10/27 04:24:06;;;;;;;5.45;2.38;;;;;;;;;;5096323;28;20056;-72
2023/10/27 04:26:31;;;;;;;3.92;1.65;;;;;;;;;;5095569;28;20442;-70
2023/10/27 04:28:56;;;;;;;4.72;1.70;;;;;;;;;;5096137;28;20039;-72
2023/10/27 04:31:22;;;;;;;3.15;1.50;;;;;;;;;;5097159;28;20027;-69
2023/10/27 04:33:50;;;;;;;6.90;2.20;;;;;;;;;;5094797;28;20366;-74
2023/10/27 04:36:15;;;;;;;3.92;1.40;;;;;;;;;;5095476;28;20044;-69
2023/10/27 04:38:42;;;;;;;4.07;1.77;;;;;;;;;;5095952;28;20665;-72
2023/10/27 04:41:08;;;;;;;4.32;1.67;;;;;;;;;;5096097;28;20032;-69
2023/10/27 04:43:35;;;;;;;5.95;1.88;;;;;;;;;;5095747;28;20409;-74
2023/10/27 04:46:01;;;;;;;5.80;1.77;;;;;;;;;;5097896;28;20027;-72
2023/10/27 04:48:26;;;;;;;7.68;2.00;;;;;;;;;;5096302;28;20081;-71
2023/10/27 04:50:52;;;;;;;4.10;1.50;;;;;;;;;;5095254;28;20076;-73
2023/10/27 04:53:18;;;;;;;5.47;1.60;;;;;;;;;;5097500;28;20046;-70
2023/10/27 04:55:43;;;;;;;6.78;1.92;;;;;;;;;;5096220;28;20024;-69
2023/10/27 04:58:08;;;;;;;8.32;2.17;;;;;;;;;;5094938;28;20024;-70
2023/10/27 05:00:34;;;;;;;5.20;2.28;;;;;;;;;;5094834;28;20084;-74
2023/10/27 05:02:59;;;;;;;3.75;1.48;;;;;;;;;;5081248;28;20524;-69
2023/10/27 05:05:24;;;;;;;7.68;1.95;;;;;;;;;;5082537;28;20438;-75
2023/10/27 05:07:50;;;;;;;5.78;1.70;;;;;;;;;;5098312;28;20046;-74
2023/10/27 05:10:15;;;;;;;3.85;1.80;;;;;;;;;;5094221;28;20030;-70
2023/10/27 05:12:41;;;;;;;6.25;1.52;;;;;;;;;;5096178;28;20035;-74
2023/10/27 05:15:06;;;;;;;6.65;1.85;;;;;;;;;;5092257;28;20066;-72
2023/10/27 05:17:35;;;;;;;7.15;2.10;;;;;;;;;;5082707;28;20343;-71
2023/10/27 05:20:01;;;;;;;3.47;1.50;;;;;;;;;;5089678;28;20115;-74
2023/10/27 05:22:26;;;;;;;4.50;1.98;;;;;;;;;;5080814;28;20024;-71
2023/10/27 05:24:51;;;;;;;2.58;1.67;;;;;;;;;;5076061;28;20344;-75
2023/10/27 05:27:17;;;;;;;5.88;1.70;;;;;;;;;;5071608;28;20063;-71
2023/10/27 05:29:42;;;;;;;3.67;1.75;;;;;;;;;;5078702;28;20041;-69
2023/10/27 05:32:07;;;;;;;5.63;1.83;;;;;;;;;;5075167;28;20339;-70
2023/10/27 05:34:33;;;;;;;5.95;1.67;;;;;;;;;;5084808;28;20027;-70
2023/10/27 05:36:58;;;;;;;5.93;1.67;;;;;;;;;;5081173;28;20052;-72
2023/10/27 05:39:26;;;;;;;3.33;1.63;;;;;;;;;;5078173;28;20039;-73
2023/10/27 05:41:52;;;;;;;4.68;1.85;;;;;;;;;;5085854;28;20039;-70
2023/10/27 05:44:17;;;;;;;5.97;1.88;;;;;;;;;;5095564;28;20106;-69
2023/10/27 05:46:42;;;;;;;3.25;1.65;;;;;;;;;;5091177;28;20035;-69
2023/10/27 05:49:07;;;;;;;5.88;1.67;;;;;;;;;;5088020;28;20030;-70
2023/10/27 05:51:34;;;;;;;6.53;1.90;;;;;;;;;;5091664;28;20027;-70
2023/10/27 05:53:59;;;;;;;5.45;1.58;;;;;;;;;;5093811;28;20060;-76
2023/10/27 05:56:25;;;;;;;4.53;1.55;;;;;;;;;;5095697;28;20067;-74
2023/10/27 05:58:51;;;;;;;6.50;2.10;;;;;;;;;;5094229;28;20456;-71
2023/10/27 06:01:17;;;;;;;5.65;2.78;;;;;;;;;;5094186;28;20540;-72
2023/10/27 06:03:42;;;;;;;4.90;2.10;;;;;;;;;;5097059;28;20097;-72
2023/10/27 06:06:08;;;;;;;3.45;1.67;;;;;;;;;;5095227;28;20027;-75
2023/10/27 06:08:40;;;;;;;4.32;1.58;;;;;;;;;;5093103;28;20023;-72
2023/10/27 06:11:06;;;;;;;5.20;1.90;;;;;;;;;;5100851;28;20073;-73
2023/10/27 06:13:31;;;;;;;4.10;1.70;;;;;;;;;;5099856;28;20028;-72
2023/10/27 06:15:57;;;;;;;7.45;4.20;;;;;;;;;;5098079;28;20063;-70
2023/10/27 06:18:22;;;;;;;5.13;2.08;;;;;;;;;;5097975;27;20027;-71
2023/10/27 06:20:47;;;;;;;6.10;1.92;;;;;;;;;;5099032;27;20024;-70
2023/10/27 06:23:13;;;;;;;5.18;1.70;;;;;;;;;;5099384;28;20023;-70
2023/10/27 06:25:38;;;;;;;4.57;1.95;;;;;;;;;;5100282;28;20033;-70
2023/10/27 06:28:03;;;;;;;8.07;2.28;;;;;;;;;;5097731;28;20103;-73
2023/10/27 06:30:29;;;;;;;4.32;1.77;;;;;;;;;;5097858;28;20119;-72
2023/10/27 06:32:54;;;;;;;6.05;1.80;;;;;;;;;;5099692;28;20082;-70
2023/10/27 06:35:19;;;;;;;3.90;1.50;;;;;;;;;;5101199;28;20065;-70
2023/10/27 06:37:45;;;;;;;7.80;2.03;;;;;;;;;;5098672;27;20693;-73
2023/10/27 06:40:10;;;;;;;4.35;1.75;;;;;;;;;;5097692;28;20047;-71
2023/10/27 06:42:36;;;;;;;5.55;2.40;;;;;;;;;;5098453;28;20031;-70
2023/10/27 06:45:03;;;;;;;3.65;1.70;;;;;;;;;;5100716;27;20106;-71
2023/10/27 06:47:29;;;;;;;4.38;1.77;;;;;;;;;;5098855;28;20031;-75
2023/10/27 06:49:54;;;;;;;12.25;2.60;;;;;;;;;;5098690;28;20029;-70
2023/10/27 06:52:19;;;;;;;9.35;2.35;;;;;;;;;;5099420;28;20046;-72
2023/10/27 06:54:46;;;;;;;6.35;2.22;;;;;;;;;;5100035;28;20115;-71
2023/10/27 06:57:11;;;;;;;7.88;1.70;;;;;;;;;;5098301;28;20055;-69
2023/10/27 06:59:37;;;;;;;4.57;1.30;;;;;;;;;;5099646;28;20388;-70
2023/10/27 07:02:03;;;;;;;8.13;1.48;;;;;;;;;;5099046;28;20120;-70
2023/10/27 07:04:28;;;;;;;3.67;1.50;;;;;;;;;;5098758;28;20070;-71
2023/10/27 07:06:54;;;;;;;5.28;1.20;;;;;;;;;;5099616;28;20063;-73
2023/10/27 07:09:19;;;;;;;6.00;1.67;;;;;;;;;;5099798;28;20370;-70
2023/10/27 07:11:45;;;;;;;7.78;1.73;;;;;;;;;;5097990;28;20409;-71
2023/10/27 07:14:13;;;;;;;9.63;6.20;;;;;;;;;;5099523;28;20076;-70
2023/10/27 07:16:41;;;;;;;14.88;8.45;;;;;;;;;;5098765;28;20028;-70
2023/10/27 07:19:06;;;;;;;6.10;1.67;;;;;;;;;;5094093;28;20020;-71
2023/10/27 07:21:33;;;;;;;10.65;5.97;;;;;;;;;;5098557;28;20050;-70
2023/10/27 07:23:59;;;;;;;7.20;3.40;;;;;;;;;;5094771;28;20439;-70
2023/10/27 07:26:25;;;;;;;3.97;1.85;;;;;;;;;;5096907;28;21220;-71
2023/10/27 07:28:50;;;;;;;5.35;2.17;;;;;;;;;;5097392;28;20107;-71
2023/10/27 07:31:16;;;;;;;7.68;3.20;;;;;;;;;;5098294;28;20035;-71
2023/10/27 07:33:41;;;;;;;5.85;3.60;;;;;;;;;;5099789;28;20031;-71
2023/10/27 07:36:06;;;;;;;9.00;3.72;;;;;;;;;;5098136;28;20130;-72
2023/10/27 07:38:32;;;;;;;7.28;5.50;;;;;;;;;;5097953;27;20062;-72
2023/10/27 07:40:58;;;;;;;3.33;1.83;;;;;;;;;;5097469;28;20433;-71
2023/10/27 07:43:24;;;;;;;4.47;2.28;;;;;;;;;;5095738;27;20027;-75
2023/10/27 07:45:49;;;;;;;6.78;3.83;;;;;;;;;;5097867;28;20072;-74
2023/10/27 07:48:14;;;;;;;5.68;2.35;;;;;;;;;;5096389;28;20086;-72
2023/10/27 07:50:40;;;;;;;10.38;4.20;;;;;;;;;;5095504;28;20034;-69
2023/10/27 07:53:06;;;;;;;5.00;2.20;;;;;;;;;;5097901;28;20042;-71
2023/10/27 07:55:31;;;;;;;6.75;2.15;;;;;;;;;;5098783;28;20355;-70
2023/10/27 07:57:57;;;;;;;5.53;3.78;;;;;;;;;;5096959;28;20357;-69
2023/10/27 08:00:22;;;;;;;5.57;2.55;;;;;;;;;;5098566;28;20110;-70
2023/10/27 08:02:52;;;;;;;5.43;3.20;;;;;;;;;;5092818;28;20030;-71
2023/10/27 08:05:17;;;;;;;6.80;2.38;;;;;;;;;;5092160;28;20043;-70
2023/10/27 08:07:44;;;;;;;6.28;3.38;;;;;;;;;;5074675;28;20032;-72
2023/10/27 08:10:09;;;;;;;8.52;5.60;;;;;;;;;;5094427;28;20028;-68
2023/10/27 08:12:35;;;;;;;7.53;3.72;;;;;;;;;;5094988;28;20031;-68
2023/10/27 08:15:04;;;;;;;10.45;9.15;;;;;;;;;;5095726;28;20123;-68
2023/10/27 08:17:30;;;;;;;5.13;2.85;;;;;;;;;;5094264;28;20019;-71
2023/10/27 08:19:56;;;;;;;7.75;2.15;;;;;;;;;;5089119;28;20035;-74
2023/10/27 08:22:21;;;;;;;3.25;2.05;;;;;;;;;;5095934;28;20107;-71
2023/10/27 08:24:47;;;;;;;6.05;2.25;;;;;;;;;;5097058;28;20360;-67
2023/10/27 08:27:12;;;;;;;17.80;14.40;;;;;;;;;;5094629;28;20346;-71
2023/10/27 08:29:37;;;;;;;5.38;1.77;;;;;;;;;;5095084;28;20024;-72
2023/10/27 08:32:03;;;;;;;15.43;13.80;;;;;;;;;;5096646;28;20215;-70
2023/10/27 08:34:28;;;;;;;8.27;6.50;;;;;;;;;;5095792;28;20108;-72
2023/10/27 08:36:54;;;;;;;6.60;5.53;;;;;;;;;;5073004;27;20135;-71
2023/10/27 08:39:19;;;;;;;8.57;2.38;;;;;;;;;;5074404;28;20161;-71
2023/10/27 08:41:45;;;;;;;4.10;2.28;;;;;;;;;;5072545;28;20140;-71
2023/10/27 08:44:12;;;;;;;10.38;8.02;;;;;;;;;;5068286;28;20028;-72
2023/10/27 08:46:37;;;;;;;3.78;1.77;;;;;;;;;;5072583;28;20031;-72
2023/10/27 08:49:03;;;;;;;8.95;4.43;;;;;;;;;;5070267;28;20068;-73
2023/10/27 08:51:28;;;;;;;7.47;3.50;;;;;;;;;;5066258;28;20036;-71
2023/10/27 08:53:53;;;;;;;26.80;21.35;;;;;;;;;;5075213;28;20035;-69
2023/10/27 08:56:19;;;;;;;6.90;2.90;;;;;;;;;;5079720;28;20035;-74
2023/10/27 08:58:50;;;;;;;3.78;1.10;;;;;;;;;;5084352;28;20028;-70
2023/10/27 09:01:15;;;;;;;5.63;1.83;;;;;;;;;;5078090;28;20035;-71
2023/10/27 09:03:40;;;;;;;5.15;2.40;;;;;;;;;;5071048;28;20036;-72
2023/10/27 09:06:07;;;;;;;6.93;1.67;;;;;;;;;;5083765;28;20069;-70
2023/10/27 09:08:32;;;;;;;3.53;1.20;;;;;;;;;;5093558;28;20019;-70
2023/10/27 09:10:57;;;;;;;4.25;1.52;;;;;;;;;;5088936;28;20312;-73
2023/10/27 09:13:23;;;;;;;5.07;1.50;;;;;;;;;;5085696;28;20043;-71
2023/10/27 09:15:50;;;;;;;4.50;1.45;;;;;;;;;;5079451;28;20034;-74
2023/10/27 09:18:15;;;;;;;5.25;1.48;;;;;;;;;;5090521;28;20055;-68
2023/10/27 09:20:50;;;;;;;3.63;1.40;;;;;;;;;;5095740;28;20073;-71
2023/10/27 09:23:16;;;;;;;5.22;2.60;;;;;;;;;;5094577;28;20040;-73
2023/10/27 09:25:41;;;;;;;8.48;7.50;;;;;;;;;;5095590;28;20023;-70
2023/10/27 09:28:06;;;;;;;3.83;1.90;;;;;;;;;;5095890;28;20031;-69
2023/10/27 09:30:33;;;;;;;3.97;1.38;;;;;;;;;;5093620;28;20081;-70
2023/10/27 09:33:13;;;;;;;6.68;1.52;;;;;;;;;;5088694;28;20097;-71
2023/10/27 09:35:39;;;;;;;6.20;1.67;;;;;;;;;;5091456;28;20609;-71
2023/10/27 09:38:04;;;;;;;4.85;1.40;;;;;;;;;;5069520;28;20030;-74
2023/10/27 09:40:30;;;;;;;1.73;1.13;;;;;;;;;;5070097;28;20028;-69
2023/10/27 09:42:58;;;;;;;4.90;2.25;;;;;;;;;;5070811;28;20455;-74
2023/10/27 09:45:26;;;;;;;6.65;4.65;;;;;;;;;;5076433;28;20032;-70
2023/10/27 09:47:55;;;;;;;21.60;12.73;;;;;;;;;;5079028;28;20035;-72
2023/10/27 09:50:27;;;;;;;8.15;4.40;;;;;;;;;;5076618;28;20027;-70
2023/10/27 09:52:54;;;;;;;2.58;1.52;;;;;;;;;;5083008;28;20416;-71
2023/10/27 09:55:20;;;;;;;6.68;1.83;;;;;;;;;;5079556;27;20011;-71
2023/10/27 09:57:46;;;;;;;3.13;1.50;;;;;;;;;;5079271;28;20046;-73
2023/10/27 10:00:18;;;;;;;3.90;1.50;;;;;;;;;;5075756;28;20035;-75
2023/10/27 10:02:43;;;;;;;7.07;1.63;;;;;;;;;;5077596;27;20077;-72
2023/10/27 10:05:09;;;;;;;8.68;1.73;;;;;;;;;;5075827;28;20023;-75
2023/10/27 10:07:35;;;;;;;2.42;1.00;;;;;;;;;;5076907;28;20023;-74
2023/10/27 10:10:16;;;;;;;5.85;1.85;;;;;;;;;;5075935;28;20078;-71
2023/10/27 10:12:58;;;;;;;3.65;1.48;;;;;;;;;;5079977;28;20118;-70
2023/10/27 10:15:23;;;;;;;7.65;1.60;;;;;;;;;;5079438;28;20030;-71
2023/10/27 10:17:49;;;;;;;4.82;1.67;;;;;;;;;;5081008;27;20024;-70
2023/10/27 10:20:15;;;;;;;3.30;1.90;;;;;;;;;;5080791;28;20424;-71
2023/10/27 10:22:40;;;;;;;3.38;1.65;;;;;;;;;;5082944;27;20040;-71
2023/10/27 10:25:14;;;;;;;4.97;1.40;;;;;;;;;;5078707;28;20028;-74
2023/10/27 10:27:59;;;;;;;4.90;1.67;;;;;;;;;;5080615;28;20103;-69
2023/10/27 10:30:24;;;;;;;5.07;1.60;;;;;;;;;;5079584;28;20032;-71
2023/10/27 10:32:49;;;;;;;8.85;1.77;;;;;;;;;;5082375;28;20043;-73
2023/10/27 10:35:19;;;;;;;6.50;2.40;;;;;;;;;;5083555;28;20412;-73
2023/10/27 10:37:44;;;;;;;4.90;2.92;;;;;;;;;;5081111;27;20051;-75
2023/10/27 10:40:16;;;;;;;4.35;1.80;;;;;;;;;;5084373;27;20024;-70
2023/10/27 10:43:00;;;;;;;3.70;1.60;;;;;;;;;;5098408;28;20083;-71
2023/10/27 10:45:26;;;;;;;4.30;1.48;;;;;;;;;;5096394;28;20031;-71
2023/10/27 10:47:55;;;;;;;6.28;1.40;;;;;;;;;;5082869;28;20038;-74
2023/10/27 10:50:27;;;;;;;3.58;1.08;;;;;;;;;;5076564;28;20028;-73
2023/10/27 10:53:09;;;;;;;2.25;1.17;;;;;;;;;;5091738;28;20180;-70
2023/10/27 10:55:34;;;;;;;4.13;1.77;;;;;;;;;;5098221;28;20032;-69
2023/10/27 10:58:00;;;;;;;4.70;3.88;;;;;;;;;;5097122;28;20036;-71
2023/10/27 11:00:35;;;;;;;6.05;1.88;;;;;;;;;;5098235;28;20037;-71
2023/10/27 11:03:09;;;;;;;3.85;2.17;;;;;;;;;;5095447;28;20032;-71
2023/10/27 11:05:35;;;;;;;6.57;2.00;;;;;;;;;;5094388;28;20472;-72
2023/10/27 11:08:01;;;;;;;6.00;1.60;;;;;;;;;;5097790;28;20028;-75
2023/10/27 11:10:26;;;;;;;6.72;1.63;;;;;;;;;;5098005;28;20024;-74
2023/10/27 11:12:52;;;;;;;3.88;1.15;;;;;;;;;;5099678;28;20062;-73
2023/10/27 11:15:36;;;;;;;2.67;1.48;;;;;;;;;;5096279;28;20031;-71
2023/10/27 11:18:05;;;;;;;4.70;1.88;;;;;;;;;;5098018;28;20031;-69
2023/10/27 11:20:33;;;;;;;4.57;1.13;;;;;;;;;;5097191;28;20027;-71
2023/10/27 11:23:09;;;;;;;3.95;1.60;;;;;;;;;;5096776;28;20036;-70
2023/10/27 11:25:34;;;;;;;4.50;1.45;;;;;;;;;;5097345;28;20063;-70
2023/10/27 11:28:23;;;;;;;3.25;1.27;;;;;;;;;;5098503;28;20062;-71
2023/10/27 11:31:13;;;;;;;5.55;1.10;;;;;;;;;;5088493;28;20031;-70
2023/10/27 11:33:57;;;;;;;4.55;1.17;;;;;;;;;;5098938;28;20019;-71
2023/10/27 11:36:23;;;;;;;3.15;1.00;;;;;;;;;;5097086;28;20522;-74
2023/10/27 11:38:48;;;;;;;10.70;1.77;;;;;;;;;;5097527;28;20103;-70
2023/10/27 11:41:13;;;;;;;4.60;1.20;;;;;;;;;;5095845;28;20024;-73
2023/10/27 11:43:40;;;;;;;3.95;1.40;;;;;;;;;;5096103;28;20088;-71
2023/10/27 11:46:10;;;;;;;3.47;1.58;;;;;;;;;;5097258;28;20106;-71
2023/10/27 11:48:35;;;;;;;3.10;1.40;;;;;;;;;;5096701;28;20028;-71
2023/10/27 11:51:00;;;;;;;3.88;1.67;;;;;;;;;;5096607;28;20444;-70
2023/10/27 11:53:26;;;;;;;8.77;2.30;;;;;;;;;;5098266;28;20389;-71
2023/10/27 11:55:52;;;;;;;4.35;1.63;;;;;;;;;;5096136;28;20380;-72
2023/10/27 11:58:17;;;;;;;4.00;2.15;;;;;;;;;;5094780;28;20470;-72
2023/10/27 12:00:43;;;;;;;4.65;2.67;;;;;;;;;;5097585;28;20059;-70
2023/10/27 12:03:08;;;;;;;5.60;3.65;;;;;;;;;;5097437;28;20033;-71
2023/10/27 12:05:33;;;;;;;5.85;4.75;;;;;;;;;;5097462;28;21031;-72
2023/10/27 12:07:59;;;;;;;6.75;2.33;;;;;;;;;;5095276;28;20100;-72
2023/10/27 12:10:24;;;;;;;4.57;2.00;;;;;;;;;;5097864;28;20118;-71
2023/10/27 12:12:50;;;;;;;5.80;1.27;;;;;;;;;;5097209;28;20031;-70
2023/10/27 12:15:15;;;;;;;6.10;2.08;;;;;;;;;;5097053;28;20028;-70
2023/10/27 12:17:40;;;;;;;4.97;3.35;;;;;;;;;;5098291;28;20020;-71
2023/10/27 12:20:06;;;;;;;5.20;2.42;;;;;;;;;;5096744;28;20024;-71
2023/10/27 12:22:32;;;;;;;12.52;8.65;;;;;;;;;;5098021;28;20027;-70
2023/10/27 12:24:57;;;;;;;24.27;18.55;;;;;;;;;;5095008;28;20055;-72
2023/10/27 12:27:23;;;;;;;6.68;3.42;;;;;;;;;;5097926;28;20081;-70
2023/10/27 12:29:48;;;;;;;17.08;15.50;;;;;;;;;;5093311;28;20035;-72
2023/10/27 12:32:14;;;;;;;11.98;10.05;;;;;;;;;;5097306;28;20039;-73
2023/10/27 12:34:40;;;;;;;3.03;1.30;;;;;;;;;;5097522;28;20036;-69
2023/10/27 12:37:07;;;;;;;6.00;1.30;;;;;;;;;;5097156;28;20319;-69
2023/10/27 12:39:33;;;;;;;2.42;1.20;;;;;;;;;;5097068;28;20036;-70
2023/10/27 12:41:58;;;;;;;6.13;1.40;;;;;;;;;;5096941;28;20037;-71
2023/10/27 12:44:24;;;;;;;3.67;1.67;;;;;;;;;;5090030;28;20028;-71
2023/10/27 12:46:50;;;;;;;5.03;3.85;;;;;;;;;;5095020;28;20099;-70
2023/10/27 12:49:15;;;;;;;15.65;5.40;;;;;;;;;;5096250;28;20127;-74
2023/10/27 12:51:41;;;;;;;9.80;8.77;;;;;;;;;;5098388;27;20187;-72
2023/10/27 12:54:08;;;;;;;10.25;5.38;;;;;;;;;;5099353;28;20031;-74
2023/10/27 12:56:33;;;;;;;7.72;5.60;;;;;;;;;;5096568;28;20027;-72
2023/10/27 12:58:59;;;;;;;6.00;2.78;;;;;;;;;;5096713;28;20031;-73
2023/10/27 13:01:24;;;;;;;5.28;2.80;;;;;;;;;;5097636;28;20066;-69
2023/10/27 13:03:49;;;;;;;3.22;1.70;;;;;;;;;;5098552;28;20085;-72
2023/10/27 13:06:15;;;;;;;7.78;2.72;;;;;;;;;;5097420;28;20055;-72
2023/10/27 13:08:40;;;;;;;4.28;2.28;;;;;;;;;;5091029;28;20058;-74
2023/10/27 13:11:06;;;;;;;3.78;1.90;;;;;;;;;;5082639;28;20367;-72
2023/10/27 13:13:34;;;;;;;4.25;1.70;;;;;;;;;;5082255;28;20461;-74
2023/10/27 13:15:59;;;;;;;3.95;1.70;;;;;;;;;;5081861;28;20684;-72
2023/10/27 13:18:26;;;;;;;9.95;5.68;;;;;;;;;;5082607;28;20081;-74
2023/10/27 13:20:51;;;;;;;8.82;2.80;;;;;;;;;;5079958;28;20034;-76
2023/10/27 13:23:17;;;;;;;2.92;2.13;;;;;;;;;;5083278;28;20027;-73
2023/10/27 13:25:42;;;;;;;3.28;1.60;;;;;;;;;;5084332;28;20024;-72
2023/10/27 13:28:08;;;;;;;3.05;1.38;;;;;;;;;;5094404;28;20024;-74
2023/10/27 13:30:33;;;;;;;2.78;1.52;;;;;;;;;;5095954;28;20045;-70
2023/10/27 13:32:59;;;;;;;6.28;2.33;;;;;;;;;;5095077;28;20347;-71
2023/10/27 13:35:25;;;;;;;5.43;2.60;;;;;;;;;;5096627;28;20080;-71
2023/10/27 13:37:53;;;;;;;5.22;2.03;;;;;;;;;;5094120;28;20028;-75
2023/10/27 13:40:18;;;;;;;9.25;2.25;;;;;;;;;;5096557;28;20653;-72
2023/10/27 13:42:44;;;;;;;6.50;1.75;;;;;;;;;;5095465;28;20027;-71
2023/10/27 13:45:10;;;;;;;4.95;1.42;;;;;;;;;;5094018;28;20027;-71
2023/10/27 13:47:36;;;;;;;3.83;1.30;;;;;;;;;;5095915;28;20020;-71
2023/10/27 13:50:03;;;;;;;5.15;1.63;;;;;;;;;;5093402;28;20036;-72
2023/10/27 13:52:29;;;;;;;4.80;1.73;;;;;;;;;;5095306;28;20027;-75
2023/10/27 13:54:54;;;;;;;6.95;2.72;;;;;;;;;;5094619;28;20465;-71
2023/10/27 13:57:21;;;;;;;8.50;3.28;;;;;;;;;;5095664;28;20078;-71
2023/10/27 13:59:46;;;;;;;7.22;3.05;;;;;;;;;;5096479;28;20038;-74
2023/10/27 14:02:12;;;;;;;5.10;1.88;;;;;;;;;;5096698;28;22451;-71
2023/10/27 14:04:38;;;;;;;6.32;2.08;;;;;;;;;;5095987;28;20334;-72
2023/10/27 14:07:03;;;;;;;7.75;2.13;;;;;;;;;;5094638;28;20039;-71
2023/10/27 14:09:32;;;;;;;6.30;3.03;;;;;;;;;;5093677;28;20092;-70
2023/10/27 14:11:58;;;;;;;7.82;2.22;;;;;;;;;;5093298;28;20126;-74
2023/10/27 14:14:24;;;;;;;6.85;2.00;;;;;;;;;;5094932;28;20036;-71
2023/10/27 14:16:49;;;;;;;4.25;1.50;;;;;;;;;;5097626;28;20077;-71
2023/10/27 14:19:14;;;;;;;5.78;2.20;;;;;;;;;;5096841;28;20036;-72
2023/10/27 14:21:41;;;;;;;5.90;1.77;;;;;;;;;;5096092;28;20498;-71
2023/10/27 14:24:06;;;;;;;3.50;1.80;;;;;;;;;;5096153;28;20024;-71
2023/10/27 14:26:32;;;;;;;3.85;2.33;;;;;;;;;;5095769;28;20096;-72
2023/10/27 14:29:02;;;;;;;5.30;2.28;;;;;;;;;;5094891;28;20138;-71
2023/10/27 14:31:27;;;;;;;5.05;2.05;;;;;;;;;;5099206;28;20871;-75
2023/10/27 14:33:54;;;;;;;8.25;2.60;;;;;;;;;;5100120;28;20032;-72
2023/10/27 14:36:20;;;;;;;5.90;3.10;;;;;;;;;;5100114;28;20043;-71
2023/10/27 14:38:45;;;;;;;5.47;1.98;;;;;;;;;;5100127;28;20015;-71